TYS weather

McGhee Tyson Airport
Knoxville, Tennessee, United States

Public forecast

Using degrees Fahrenheit for public forecast. Weather courtesy of forecast.io.

METAR (pilot weather report)

Retrieved 2019/05/20 22:53 UTC (1 hour ago):

KTYS 202253Z 26007KT 10SM FEW060 FEW250 28/11 A2998 RMK AO2 SLP139 T02830111

TAF (pilot weather forecast)

Retrieved 2019/05/20 18:40 UTC (5 hours ago):

TAF KTYS 201738Z 2018/2118 26006KT P6SM SCT035 FM210100 33003KT P6SM FEW250